createdAt,value
2022-12-18T00:01:26.001Z,100980.13
2022-12-18T00:03:54.581Z,100987.91
2022-12-18T00:06:22.918Z,100986.22
2022-12-18T00:08:50.578Z,100988.16
2022-12-18T00:11:20.241Z,100980.13
2022-12-18T00:13:48.778Z,100984.41
2022-12-18T00:16:21.271Z,100986.94
2022-12-18T00:18:49.807Z,100994.59
2022-12-18T00:21:17.752Z,100996.47
2022-12-18T00:23:46.245Z,101010.59
2022-12-18T00:26:16.424Z,101007.41
2022-12-18T00:28:44.279Z,101009.16
2022-12-18T00:31:13.668Z,101009.38
2022-12-18T00:33:42.962Z,100998.91
2022-12-18T00:36:13.409Z,100998.09
2022-12-18T00:38:41.790Z,100998.81
2022-12-18T00:41:10.159Z,100990.94
2022-12-18T00:43:37.539Z,101000.41
2022-12-18T00:46:05.816Z,100985.66
2022-12-18T00:48:33.743Z,100995.44
2022-12-18T00:51:02.647Z,100997.03
2022-12-18T00:53:30.085Z,100990.91
2022-12-18T00:55:57.537Z,100994.25
2022-12-18T00:58:25.027Z,100992.63
2022-12-18T01:00:52.566Z,100992.84
2022-12-18T01:03:20.063Z,100992.91
2022-12-18T01:05:47.613Z,100989.47
2022-12-18T01:08:16.404Z,100986.19
2022-12-18T01:10:43.854Z,100981.75
2022-12-18T01:13:11.320Z,100992.31
2022-12-18T01:15:38.802Z,100998.41
2022-12-18T01:18:07.316Z,100989.78
2022-12-18T01:20:34.910Z,100995.03
2022-12-18T01:23:02.356Z,100990.78
2022-12-18T01:25:31.138Z,100999.53
2022-12-18T01:27:58.611Z,100994.16
2022-12-18T01:30:26.051Z,100997.66
2022-12-18T01:32:53.521Z,101009.91
2022-12-18T01:35:21.235Z,101013.22
2022-12-18T01:37:48.694Z,101010.59
2022-12-18T01:40:16.111Z,101003.72
2022-12-18T01:42:44.915Z,101007.22
2022-12-18T01:45:29.362Z,101001.53
2022-12-18T01:47:59.698Z,100999.03
2022-12-18T01:50:32.684Z,100996.41
2022-12-18T01:53:04.020Z,100993.78
2022-12-18T01:55:37.417Z,100985.56
2022-12-18T01:58:06.791Z,100988.44
2022-12-18T02:00:34.245Z,100986.38
2022-12-18T02:03:01.923Z,100973.84
2022-12-18T02:05:41.935Z,100966.00
2022-12-18T02:08:14.080Z,100972.91
2022-12-18T02:10:48.755Z,100970.31
2022-12-18T02:13:22.648Z,100970.19
2022-12-18T02:15:59.163Z,100985.00
2022-12-18T02:18:31.663Z,101000.78
2022-12-18T02:21:10.024Z,100992.13
2022-12-18T02:23:49.888Z,100984.31
2022-12-18T02:26:22.123Z,100983.78
2022-12-18T02:28:54.539Z,100984.44
2022-12-18T02:31:26.527Z,100970.28
2022-12-18T02:34:00.589Z,100964.97
2022-12-18T02:36:30.259Z,100962.03
2022-12-18T02:39:00.129Z,100952.22
2022-12-18T02:41:30.435Z,100961.97
2022-12-18T02:43:59.611Z,100957.69
2022-12-18T02:46:31.945Z,100955.97
2022-12-18T02:49:07.571Z,100961.13
2022-12-18T02:51:46.813Z,100977.00
2022-12-18T02:54:23.409Z,100979.53
2022-12-18T02:56:56.208Z,100973.38
2022-12-18T02:59:31.439Z,100975.13
2022-12-18T03:02:05.200Z,100963.84
2022-12-18T03:04:39.962Z,100968.41
2022-12-18T03:07:12.436Z,100972.81
2022-12-18T03:09:45.464Z,100970.94
2022-12-18T03:12:24.680Z,100969.97
2022-12-18T03:14:56.995Z,100960.34
2022-12-18T03:17:27.256Z,100958.72
2022-12-18T03:19:57.783Z,100966.53
2022-12-18T03:22:29.036Z,100964.66
2022-12-18T03:24:59.073Z,100963.00
2022-12-18T03:27:30.989Z,100954.38
2022-12-18T03:30:08.285Z,100957.28
2022-12-18T03:32:41.461Z,100959.00
2022-12-18T03:35:18.922Z,100959.84
2022-12-18T03:37:46.527Z,100948.81
2022-12-18T03:40:14.166Z,100944.13
2022-12-18T03:42:49.392Z,100940.88
2022-12-18T03:45:24.144Z,100935.53
2022-12-18T03:48:01.140Z,100945.97
2022-12-18T03:50:36.032Z,100946.00
2022-12-18T03:53:14.862Z,100956.38
2022-12-18T03:55:44.060Z,100961.72
2022-12-18T03:58:17.440Z,100959.28
2022-12-18T04:00:45.863Z,100948.50
2022-12-18T04:03:15.636Z,100954.88
2022-12-18T04:05:45.529Z,100947.78
2022-12-18T04:08:13.946Z,100952.25
2022-12-18T04:10:41.451Z,100947.47
2022-12-18T04:13:09.387Z,100947.28
2022-12-18T04:15:39.707Z,100953.34
2022-12-18T04:18:07.198Z,100944.56
2022-12-18T04:20:34.648Z,100948.09
2022-12-18T04:23:02.101Z,100948.03
2022-12-18T04:25:29.561Z,100946.84
2022-12-18T04:27:57.001Z,100954.53
2022-12-18T04:30:24.426Z,100953.94
2022-12-18T04:32:53.183Z,100952.22
2022-12-18T04:35:20.658Z,100953.28
2022-12-18T04:37:48.127Z,100954.94
2022-12-18T04:40:15.678Z,100951.44
2022-12-18T04:42:43.178Z,100951.31
2022-12-18T04:45:11.290Z,100949.63
2022-12-18T04:47:38.761Z,100955.03
2022-12-18T04:50:08.617Z,100953.63
2022-12-18T04:52:36.128Z,100946.88
2022-12-18T04:55:04.106Z,100947.63
2022-12-18T04:57:31.649Z,100950.16
2022-12-18T04:59:59.108Z,100942.28
2022-12-18T05:02:26.688Z,100939.06
2022-12-18T05:04:54.195Z,100940.72
2022-12-18T05:07:22.971Z,100936.19
2022-12-18T05:09:50.408Z,100931.19
2022-12-18T05:12:17.915Z,100932.72
2022-12-18T05:14:45.340Z,100921.41
2022-12-18T05:17:13.172Z,100924.19
2022-12-18T05:19:40.660Z,100921.84
2022-12-18T05:22:08.132Z,100920.22
2022-12-18T05:24:37.194Z,100915.81
2022-12-18T05:27:05.134Z,100921.13
2022-12-18T05:29:32.653Z,100905.38
2022-12-18T05:32:00.112Z,100909.63
2022-12-18T05:34:27.534Z,100908.78
2022-12-18T05:36:54.967Z,100901.72
2022-12-18T05:39:22.417Z,100897.38
2022-12-18T05:41:51.213Z,100899.88
2022-12-18T05:44:18.835Z,100905.91
2022-12-18T05:46:46.414Z,100912.16
2022-12-18T05:49:13.913Z,100915.88
2022-12-18T05:51:41.369Z,100916.78
2022-12-18T05:54:09.484Z,100923.88
2022-12-18T05:56:37.784Z,100926.44
2022-12-18T05:59:06.591Z,100934.28
2022-12-18T06:01:34.071Z,100937.84
2022-12-18T06:04:01.602Z,100927.09
2022-12-18T06:06:30.696Z,100929.75
2022-12-18T06:08:59.520Z,100933.25
2022-12-18T06:11:28.272Z,100942.03
2022-12-18T06:13:59.065Z,100951.53
2022-12-18T06:16:29.180Z,100953.22
2022-12-18T06:18:58.425Z,100961.81
2022-12-18T06:21:25.905Z,100963.41
2022-12-18T06:23:53.494Z,100975.66
2022-12-18T06:26:26.174Z,100984.91
2022-12-18T06:28:55.505Z,100989.19
2022-12-18T06:31:23.061Z,100984.81
2022-12-18T06:33:51.951Z,100981.41
2022-12-18T06:36:20.561Z,100979.75
2022-12-18T06:38:48.047Z,100977.34
2022-12-18T06:41:18.187Z,100979.06
2022-12-18T06:43:46.556Z,100977.38
2022-12-18T06:46:14.561Z,100981.75
2022-12-18T06:48:42.430Z,100967.03
2022-12-18T06:51:11.237Z,100970.25
2022-12-18T06:53:38.956Z,100962.50
2022-12-18T06:56:10.673Z,100954.56
2022-12-18T06:58:38.656Z,100952.88
2022-12-18T07:01:08.440Z,100944.91
2022-12-18T07:03:36.176Z,100942.38
2022-12-18T07:06:04.244Z,100937.16
2022-12-18T07:08:33.998Z,100940.38
2022-12-18T07:11:04.809Z,100935.09
2022-12-18T07:13:32.426Z,100928.22
2022-12-18T07:16:08.611Z,100928.88
2022-12-18T07:18:40.456Z,100918.44
2022-12-18T07:21:09.732Z,100921.84
2022-12-18T07:23:39.117Z,100920.81
2022-12-18T07:26:08.745Z,100915.84
2022-12-18T07:28:37.391Z,100914.75
2022-12-18T07:31:05.711Z,100918.38
2022-12-18T07:33:35.478Z,100909.88
2022-12-18T07:36:04.156Z,100907.25
2022-12-18T07:38:31.871Z,100905.00
2022-12-18T07:41:04.147Z,100902.38
2022-12-18T07:43:34.783Z,100891.22
2022-12-18T07:46:02.857Z,100894.72
2022-12-18T07:48:30.588Z,100878.00
2022-12-18T07:51:00.398Z,100892.66
2022-12-18T07:53:28.123Z,100890.81
2022-12-18T07:56:25.515Z,100891.69
2022-12-18T07:58:49.172Z,100898.94
2022-12-18T08:01:16.801Z,100899.84
2022-12-18T08:03:44.882Z,100907.75
2022-12-18T08:06:12.464Z,100910.63
2022-12-18T08:08:41.514Z,100908.16
2022-12-18T08:11:08.989Z,100915.38
2022-12-18T08:13:36.683Z,100908.19
2022-12-18T08:16:08.212Z,100905.63
2022-12-18T08:18:36.688Z,100909.22
2022-12-18T08:21:10.453Z,100905.78
2022-12-18T08:23:42.716Z,100899.75
2022-12-18T08:26:11.018Z,100895.38
2022-12-18T08:28:38.585Z,100884.91
2022-12-18T08:31:08.299Z,100876.06
2022-12-18T08:33:37.083Z,100875.91
2022-12-18T08:36:05.897Z,100871.53
2022-12-18T08:38:33.635Z,100860.28
2022-12-18T08:41:01.989Z,100854.94
2022-12-18T08:43:47.086Z,100855.97
2022-12-18T08:46:16.553Z,100858.56
2022-12-18T08:48:44.539Z,100840.91
2022-12-18T08:51:12.226Z,100848.91
2022-12-18T08:53:40.272Z,100848.19
2022-12-18T08:56:09.353Z,100846.44
2022-12-18T08:58:36.795Z,100842.91
2022-12-18T09:01:06.215Z,100835.06
2022-12-18T09:03:35.436Z,100842.13
2022-12-18T09:06:03.407Z,100842.00
2022-12-18T09:08:30.999Z,100839.28
2022-12-18T09:10:58.508Z,100837.69
2022-12-18T09:13:25.977Z,100837.72
2022-12-18T09:15:56.116Z,100833.38
2022-12-18T09:18:24.831Z,100835.91
2022-12-18T09:20:53.962Z,100835.06
2022-12-18T09:23:22.021Z,100814.94
2022-12-18T09:25:49.547Z,100820.22
2022-12-18T09:28:19.357Z,100816.72
2022-12-18T09:30:50.505Z,100818.63
2022-12-18T09:33:18.481Z,100829.97
2022-12-18T09:35:47.335Z,100824.69
2022-12-18T09:38:18.888Z,100817.78
2022-12-18T09:40:49.819Z,100816.91
2022-12-18T09:43:20.740Z,100810.88
2022-12-18T09:45:51.579Z,100810.03
2022-12-18T09:48:24.392Z,100795.16
2022-12-18T09:50:53.393Z,100804.78
2022-12-18T09:53:27.101Z,100811.88
2022-12-18T09:55:55.299Z,100818.03
2022-12-18T09:58:28.512Z,100826.81
2022-12-18T10:00:56.328Z,100832.94
2022-12-18T10:03:24.428Z,100832.06
2022-12-18T10:06:03.869Z,100812.75
2022-12-18T10:08:43.954Z,100824.16
2022-12-18T10:11:33.051Z,100815.41
2022-12-18T10:14:08.978Z,100811.91
2022-12-18T10:16:44.089Z,100802.25
2022-12-18T10:19:27.055Z,100790.84
2022-12-18T10:22:05.286Z,100784.72
2022-12-18T10:24:39.652Z,100760.16
2022-12-18T10:27:15.736Z,100765.41
2022-12-18T10:29:44.550Z,100768.94
2022-12-18T10:32:17.837Z,100765.44
2022-12-18T10:34:48.887Z,100774.22
2022-12-18T10:37:20.201Z,100761.91
2022-12-18T10:40:09.235Z,100748.75
2022-12-18T10:42:36.763Z,100749.59
2022-12-18T10:45:14.453Z,100747.78
2022-12-18T10:47:45.327Z,100738.19
2022-12-18T10:50:26.094Z,100744.31
2022-12-18T10:52:58.430Z,100739.94
2022-12-18T10:55:33.175Z,100753.00
2022-12-18T10:58:22.226Z,100738.03
2022-12-18T11:01:05.871Z,100747.66
2022-12-18T11:03:37.391Z,100744.13
2022-12-18T11:06:07.878Z,100736.19
2022-12-18T11:08:35.660Z,100736.19
2022-12-18T11:11:06.044Z,100744.03
2022-12-18T11:13:33.637Z,100742.31
2022-12-18T11:16:01.446Z,100738.81
2022-12-18T11:18:31.652Z,100722.94
2022-12-18T11:21:02.089Z,100727.28
2022-12-18T11:23:29.866Z,100730.00
2022-12-18T11:25:59.868Z,100734.31
2022-12-18T11:28:37.840Z,100729.88
2022-12-18T11:31:28.334Z,100725.47
2022-12-18T11:36:50.095Z,100716.72
2022-12-18T11:39:22.499Z,100712.28
2022-12-18T11:42:13.325Z,100696.50
2022-12-18T11:44:48.656Z,100700.84
2022-12-18T11:47:26.500Z,100699.09
2022-12-18T11:49:57.832Z,100691.16
2022-12-18T11:52:29.978Z,100685.88
2022-12-18T11:55:02.608Z,100674.41
2022-12-18T11:57:39.827Z,100664.88
2022-12-18T12:00:16.794Z,100656.16
2022-12-18T12:03:10.565Z,100648.22
2022-12-18T12:05:50.895Z,100656.09
2022-12-18T12:08:28.991Z,100648.16
2022-12-18T12:11:06.632Z,100642.97
2022-12-18T12:13:44.014Z,100646.47
2022-12-18T12:16:20.049Z,100647.41
2022-12-18T12:19:03.457Z,100650.03
2022-12-18T12:21:40.547Z,100654.50
2022-12-18T12:24:25.316Z,100648.28
2022-12-18T12:27:02.310Z,100645.50
2022-12-18T12:29:44.521Z,100651.69
2022-12-18T12:32:29.521Z,100659.50
2022-12-18T12:35:11.139Z,100642.16
2022-12-18T12:37:50.470Z,100626.38
2022-12-18T12:40:51.362Z,100632.63
2022-12-18T12:43:23.204Z,100631.75
2022-12-18T12:45:54.752Z,100623.72
2022-12-18T12:48:35.093Z,100640.34
2022-12-18T12:51:06.051Z,100635.19
2022-12-18T12:53:40.168Z,100626.53
2022-12-18T12:56:12.009Z,100639.72
2022-12-18T12:58:50.475Z,100625.72
2022-12-18T13:01:27.322Z,100620.44
2022-12-18T13:04:05.129Z,100625.66
2022-12-18T13:06:44.649Z,100629.00
2022-12-18T13:09:12.607Z,100627.25
2022-12-18T13:12:00.630Z,100632.41
2022-12-18T13:14:34.532Z,100624.50
2022-12-18T13:17:28.400Z,100610.47
2022-12-18T13:20:08.304Z,100616.66
2022-12-18T13:22:39.036Z,100618.53
2022-12-18T13:25:38.287Z,100614.16
2022-12-18T13:28:12.342Z,100616.03
2022-12-18T13:30:56.948Z,100615.97
2022-12-18T13:36:38.232Z,100619.72
2022-12-18T13:39:28.924Z,100625.81
2022-12-18T13:43:00.532Z,100630.22
2022-12-18T13:45:42.424Z,100627.50
2022-12-18T13:48:22.497Z,100617.06
2022-12-18T13:51:01.438Z,100622.41
2022-12-18T13:53:35.065Z,100615.38
2022-12-18T13:56:03.852Z,100610.22
2022-12-18T13:58:31.431Z,100607.59
2022-12-18T14:01:00.161Z,100604.97
2022-12-18T14:03:30.572Z,100595.34
2022-12-18T14:06:03.066Z,100588.34
2022-12-18T14:08:39.578Z,100590.06
2022-12-18T14:11:08.610Z,100576.06
2022-12-18T14:13:43.154Z,100576.97
2022-12-18T14:16:15.918Z,100569.94
2022-12-18T14:18:47.093Z,100562.06
2022-12-18T14:21:24.731Z,100558.47
2022-12-18T14:24:14.043Z,100560.31
2022-12-18T14:26:42.281Z,100546.28
2022-12-18T14:29:25.478Z,100530.50
2022-12-18T14:32:18.310Z,100525.25
2022-12-18T14:34:47.498Z,100516.50
2022-12-18T14:37:16.436Z,100511.19
2022-12-18T14:39:57.484Z,100510.31
2022-12-18T14:42:28.730Z,100503.38
2022-12-18T14:45:29.920Z,100502.50
2022-12-18T14:47:57.461Z,100502.44
2022-12-18T14:50:25.336Z,100493.78
2022-12-18T14:52:53.111Z,100504.22
2022-12-18T14:55:23.272Z,100499.00
2022-12-18T14:57:53.158Z,100496.38
2022-12-18T15:00:23.022Z,100486.75
2022-12-18T15:02:54.812Z,100486.75
2022-12-18T15:05:28.341Z,100487.69
2022-12-18T15:07:57.611Z,100477.16
2022-12-18T15:10:28.358Z,100483.31
2022-12-18T15:13:10.080Z,100476.28
2022-12-18T15:15:48.667Z,100491.19
2022-12-18T15:18:18.858Z,100480.72
2022-12-18T15:20:49.182Z,100484.16
2022-12-18T15:23:19.472Z,100481.56
2022-12-18T15:25:49.902Z,100475.44
2022-12-18T15:28:25.118Z,100478.06
2022-12-18T15:31:05.012Z,100468.38
2022-12-18T15:33:34.750Z,100470.19
2022-12-18T15:36:04.733Z,100465.78
2022-12-18T15:38:32.626Z,100471.91
2022-12-18T15:41:01.700Z,100457.91
2022-12-18T15:43:35.599Z,100457.94
2022-12-18T15:46:05.139Z,100456.19
2022-12-18T15:48:34.553Z,100464.09
2022-12-18T15:51:02.356Z,100454.47
2022-12-18T15:53:32.994Z,100459.69
2022-12-18T15:56:19.131Z,100446.56
2022-12-18T15:58:46.547Z,100453.56
2022-12-18T16:01:27.886Z,100449.22
2022-12-18T16:03:55.638Z,100456.22
2022-12-18T16:06:23.782Z,100443.09
2022-12-18T16:08:51.563Z,100443.97
2022-12-18T16:11:38.794Z,100437.84
2022-12-18T16:14:08.547Z,100429.09
2022-12-18T16:16:35.995Z,100445.72
2022-12-18T16:19:03.445Z,100438.72
2022-12-18T16:21:34.081Z,100436.94
2022-12-18T16:24:01.752Z,100442.22
2022-12-18T16:26:30.572Z,100433.47
2022-12-18T16:28:57.991Z,100439.59
2022-12-18T16:31:25.457Z,100450.97
2022-12-18T16:34:14.744Z,100457.09
2022-12-18T16:36:42.190Z,100459.72
2022-12-18T16:39:09.623Z,100458.84
2022-12-18T16:41:38.420Z,100450.09
2022-12-18T16:44:05.967Z,100456.22
2022-12-18T16:46:33.515Z,100464.97
2022-12-18T16:49:01.597Z,100468.47
2022-12-18T16:51:29.668Z,100464.09
2022-12-18T16:53:57.825Z,100464.09
2022-12-18T16:56:25.788Z,100465.81
2022-12-18T16:58:56.567Z,100467.59
2022-12-18T17:01:24.758Z,100483.34
2022-12-18T17:03:56.110Z,100484.22
2022-12-18T17:06:24.298Z,100488.59
2022-12-18T17:08:56.380Z,100477.22
2022-12-18T17:11:24.857Z,100461.47
2022-12-18T17:13:54.723Z,100439.59
2022-12-18T17:16:23.071Z,100444.81
2022-12-18T17:18:50.958Z,100438.72
2022-12-18T17:21:18.459Z,100432.59
2022-12-18T17:23:46.001Z,100422.06
2022-12-18T17:26:14.541Z,100404.59
2022-12-18T17:28:42.985Z,100411.59
2022-12-18T17:31:17.671Z,100415.94
2022-12-18T17:33:45.450Z,100430.84
2022-12-18T17:36:13.050Z,100423.84
2022-12-18T17:38:40.988Z,100431.72
2022-12-18T17:41:11.191Z,100430.84
2022-12-18T17:43:45.612Z,100426.47
2022-12-18T17:46:16.001Z,100440.47
2022-12-18T17:48:43.451Z,100435.19
2022-12-18T17:51:45.442Z,100422.09
2022-12-18T17:54:12.980Z,100436.97
2022-12-18T17:56:40.603Z,100425.59
2022-12-18T17:59:08.772Z,100431.69
2022-12-18T18:01:44.026Z,100434.31
2022-12-18T18:04:12.762Z,100429.97
2022-12-18T18:06:40.329Z,100429.06
2022-12-18T18:09:08.230Z,100425.56
2022-12-18T18:12:02.282Z,100408.06
2022-12-18T18:14:29.953Z,100403.72
2022-12-18T18:17:04.085Z,100398.44
2022-12-18T18:19:33.296Z,100395.84
2022-12-18T18:22:01.366Z,100394.94
2022-12-18T18:24:29.578Z,100402.81
2022-12-18T18:26:59.347Z,100393.19
2022-12-18T18:29:30.158Z,100387.94
2022-12-18T18:32:00.108Z,100400.22
2022-12-18T18:34:30.179Z,100405.41
2022-12-18T18:37:01.088Z,100401.03
2022-12-18T18:39:28.859Z,100399.31
2022-12-18T18:41:56.396Z,100411.53
2022-12-18T18:44:25.969Z,100405.41
2022-12-18T18:46:55.005Z,100408.91
2022-12-18T18:49:26.939Z,100410.66
2022-12-18T18:51:55.312Z,100416.78
2022-12-18T18:54:22.752Z,100404.50
2022-12-18T18:59:38.037Z,100419.34
2022-12-18T19:02:05.859Z,100433.34
2022-12-18T19:04:36.371Z,100443.00
2022-12-18T19:07:05.976Z,100442.13
2022-12-18T19:09:33.531Z,100448.22
2022-12-18T19:12:19.012Z,100455.22
2022-12-18T19:14:46.634Z,100464.00
2022-12-18T19:17:14.076Z,100481.53
2022-12-18T19:19:43.069Z,100469.28
2022-12-18T19:22:10.916Z,100471.03
2022-12-18T19:24:38.635Z,100454.44
2022-12-18T19:27:06.113Z,100456.19
2022-12-18T19:29:33.603Z,100444.78
2022-12-18T19:32:01.388Z,100425.56
2022-12-18T19:34:28.874Z,100438.66
2022-12-18T19:37:00.122Z,100429.03
2022-12-18T19:39:28.144Z,100431.66
2022-12-18T19:41:55.631Z,100429.94
2022-12-18T19:44:23.081Z,100436.03
2022-12-18T19:46:51.676Z,100433.41
2022-12-18T19:49:22.829Z,100436.03
2022-12-18T19:51:50.720Z,100423.81
2022-12-18T19:54:19.654Z,100417.69
2022-12-18T19:56:47.473Z,100430.81
2022-12-18T19:59:16.432Z,100424.69
2022-12-18T20:01:43.995Z,100423.81
2022-12-18T20:04:11.612Z,100414.19
2022-12-18T20:06:48.264Z,100414.22
2022-12-18T20:09:16.306Z,100421.19
2022-12-18T20:11:45.400Z,100417.72
2022-12-18T20:14:19.647Z,100410.69
2022-12-18T20:16:51.908Z,100420.31
2022-12-18T20:19:20.275Z,100422.06
2022-12-18T20:21:48.280Z,100419.44
2022-12-18T20:24:15.796Z,100429.91
2022-12-18T20:26:44.665Z,100429.94
2022-12-18T20:29:12.214Z,100428.16
2022-12-18T20:31:39.744Z,100422.09
2022-12-18T20:34:07.246Z,100423.84
2022-12-18T20:36:36.375Z,100413.34
2022-12-18T20:39:07.560Z,100412.44
2022-12-18T20:41:37.994Z,100415.94
2022-12-18T20:44:21.441Z,100415.97
2022-12-18T20:46:50.327Z,100421.19
2022-12-18T20:49:17.980Z,100417.69
2022-12-18T20:51:45.423Z,100417.69
2022-12-18T20:54:12.864Z,100424.72
2022-12-18T20:56:40.296Z,100427.31
2022-12-18T20:59:10.532Z,100439.56
2022-12-18T21:01:38.805Z,100438.72
2022-12-18T21:04:08.967Z,100426.44
2022-12-18T21:06:36.943Z,100432.56
2022-12-18T21:09:12.551Z,100429.97
2022-12-18T21:11:57.531Z,100424.72
2022-12-18T21:14:28.336Z,100425.59
2022-12-18T21:16:56.736Z,100422.09
2022-12-18T21:19:27.092Z,100422.97
2022-12-18T21:21:55.944Z,100425.59
2022-12-18T21:24:24.124Z,100425.59
2022-12-18T21:26:52.478Z,100423.84
2022-12-18T21:29:22.079Z,100415.09
2022-12-18T21:31:52.363Z,100424.72
2022-12-18T21:34:22.858Z,100421.22
2022-12-18T21:36:50.807Z,100413.34
2022-12-18T21:39:18.847Z,100414.22
2022-12-18T21:42:18.278Z,100416.84
2022-12-18T21:44:48.710Z,100409.84
2022-12-18T21:47:22.586Z,100415.09
2022-12-18T21:49:50.972Z,100409.88
2022-12-18T21:52:18.444Z,100421.19
2022-12-18T21:54:45.873Z,100418.59
2022-12-18T21:57:13.983Z,100412.47
2022-12-18T21:59:43.277Z,100415.13
2022-12-18T22:02:14.026Z,100401.97
2022-12-18T22:04:43.299Z,100397.59
2022-12-18T22:07:11.637Z,100394.97
2022-12-18T22:09:39.465Z,100408.97
2022-12-18T22:12:08.853Z,100399.34
2022-12-18T22:14:36.358Z,100384.47
2022-12-18T22:17:03.985Z,100386.25
2022-12-18T22:19:31.456Z,100384.47
2022-12-18T22:22:00.279Z,100373.97
2022-12-18T22:24:29.089Z,100370.47
2022-12-18T22:27:02.160Z,100377.47
2022-12-18T22:29:47.911Z,100357.34
2022-12-18T22:32:18.934Z,100356.47
2022-12-18T22:35:03.246Z,100359.13
2022-12-18T22:37:35.008Z,100363.47
2022-12-18T22:40:03.262Z,100362.63
2022-12-18T22:42:32.437Z,100356.47
2022-12-18T22:45:00.217Z,100358.22
2022-12-18T22:47:30.209Z,100366.09
2022-12-18T22:49:58.213Z,100366.13
2022-12-18T22:52:25.880Z,100353.84
2022-12-18T22:54:55.040Z,100353.84
2022-12-18T22:57:23.302Z,100359.09
2022-12-18T22:59:51.223Z,100339.84
2022-12-18T23:02:19.398Z,100344.22
2022-12-18T23:04:47.428Z,100344.22
2022-12-18T23:07:14.912Z,100332.00
2022-12-18T23:09:42.415Z,100338.13
2022-12-18T23:12:15.988Z,100334.63
2022-12-18T23:14:43.743Z,100336.38
2022-12-18T23:17:11.260Z,100332.88
2022-12-18T23:19:41.653Z,100327.59
2022-12-18T23:22:11.928Z,100330.22
2022-12-18T23:24:39.577Z,100327.59
2022-12-18T23:27:11.368Z,100321.47
2022-12-18T23:29:41.168Z,100304.84
2022-12-18T23:32:09.009Z,100307.47
2022-12-18T23:34:36.529Z,100298.72
2022-12-18T23:37:04.107Z,100297.88
2022-12-18T23:39:31.596Z,100287.38
2022-12-18T23:41:59.446Z,100290.81
2022-12-18T23:44:27.399Z,100281.16
2022-12-18T23:46:56.407Z,100282.94
2022-12-18T23:49:24.343Z,100271.59
2022-12-18T23:51:51.862Z,100278.59
2022-12-18T23:54:23.220Z,100266.34
2022-12-18T23:57:01.016Z,100263.69
2022-12-18T23:59:28.478Z,100275.97
